Hawaii METAR Reports

 

PHOG - Kahului, Hawaii, USA
Distance from station: WNW 8mi, 13km
Updated: Mon, 04-Jul-2022 1:54pm HST
Partly Cloudy
Partly Cloudy
 Wind from NE
Wind: NE 25 mph , 41 km/h, Gust: 35 mph , 56 km/h
Temperature: 84°F , 29°C
Heat Index: 87°F , 31°C
Dew Point: 68°F , 20°C
Humidity: 58%
Barometer: 30.07 inHg , 1018.3 hPa
Clouds: Partly Cloudy
Visibility: 10 miles , 16 km
Cloud details: Few Clouds 2000 ft
Partly Cloudy 5000 ft
2022/07/04 23:54 PHOG 042354Z 05022G30KT 10SM FEW020 SCT050 29/20 A3007 RMK AO2 PK WND 05033/2332 RAE26 SLP186 P0000 60000 T02890200 10311 20261 58012
PHJH - Lahaina/West Mau, Hawaii, USA
Distance from station: WNW 24mi, 39km
Updated: Wed, 15-Sep-2021 1:45pm HST
NOT Current
Partly Cloudy
Partly Cloudy
 Wind from NE
Wind: NE 17 mph , 28 km/h
Temperature: 84°F , 29°C
Heat Index: 87°F , 31°C
Dew Point: 68°F , 20°C
Humidity: 58%
Barometer: 29.96 inHg , 1014.6 hPa
Clouds: Partly Cloudy
Visibility: 10 miles , 16 km
Cloud details: Partly Cloudy 4500 ft
2021/09/15 23:45 PHJH 152345Z 05015KT 10SM SCT045 29/20 A2996
 
PHNY - Lanai City Airpo, Hawaii, USA
Distance from station: W 40mi, 65km
Updated: Mon, 04-Jul-2022 1:56pm HST
Partly Cloudy
Partly Cloudy
 Wind from NE
Wind: NE 17 mph , 28 km/h
Temperature: 79°F , 26°C
Dew Point: 68°F , 20°C
Humidity: 70%
Barometer: 30.12 inHg , 1020 hPa
Clouds: Partly Cloudy
Visibility: 10 miles , 16 km
Cloud details: Few Clouds 1400 ft
Partly Cloudy 2900 ft
Partly Cloudy 3800 ft
2022/07/04 23:56 PHNY 042356Z AUTO 04015KT 10SM FEW014 SCT029 SCT038 26/20 A3012 RMK AO2 RAB19E30 SLP178 P0000 60000 T02560200 10256 20222 55012 $
PHMK - Molokai, Hawaii, USA
Distance from station: WNW 55mi, 88km
Updated: Mon, 04-Jul-2022 1:54pm HST
Light rain, Mostly cloudy
Light rain, Mostly cloudy
 Wind from NNE
Wind: NNE 15 mph , 24 km/h, Gust: 26 mph , 43 km/h
Temperature: 77°F , 25°C
Dew Point: 70°F , 21°C
Humidity: 79%
Barometer: 30.10 inHg , 1019.3 hPa
Summary: Light Rain
Clouds: Mostly Cloudy
Visibility: 10 miles , 16 km
Cloud details: Few Clouds 1500 ft
Mostly Cloudy 4600 ft
2022/07/04 23:54 PHMK 042354Z 03013G23KT 10SM -RA FEW015 BKN046 25/21 A3010 RMK AO2 PK WND 05031/2338 RAB44 SLP195 P0000 60001 T02500206 10283 20233 56012 $
 
PHKO - Kailua/Kona, Hawaii, USA
Distance from station: SSE 79mi, 128km
Updated: Mon, 04-Jul-2022 1:53pm HST
Partly Cloudy
Partly Cloudy
 Wind from SW
Wind: SW 12 mph , 19 km/h
Temperature: 84°F , 29°C
Heat Index: 88°F , 31°C
Dew Point: 70°F , 21°C
Humidity: 62%
Barometer: 30.03 inHg , 1016.9 hPa
Clouds: Partly Cloudy
Visibility: 10 miles , 16 km
Cloud details: Partly Cloudy 6000 ft
2022/07/04 23:53 PHKO 042353Z 23010KT 10SM SCT060 29/21 A3003 RMK AO2 SLP167 T02890211 10294 20261 58013 $
PHSF - Bradshaw Aaf/Haw, Hawaii, USA
Distance from station: SE 90mi, 145km
Updated: Mon, 04-Jul-2022 1:58pm HST
Clear
Clear
 Wind from ESE
Wind: ESE 5 mph , 7 km/h, Gust: 25 mph , 41 km/h
Temperature: 73°F , 23°C
Dew Point: 52°F , 11°C
Humidity: 47%
Barometer: 30.36 inHg , 1028.1 hPa
Clouds: Clear
Visibility: 10 miles , 16 km
2022/07/04 23:58 PHSF 042358Z AUTO 12004G22KT 10SM CLR 23/11 A3036 RMK AO2 SLP164 T02260105 10237 20171 57010 $
 
PHNG - Kaneohe Mcas, Hawaii, USA
Distance from station: WNW 102mi, 164km
Updated: Mon, 04-Jul-2022 1:57pm HST
Mostly Cloudy
Mostly Cloudy
 Wind from ENE
Wind: ENE 14 mph , 22 km/h, Gust: 26 mph , 43 km/h
Temperature: 82°F , 28°C
Heat Index: 85°F , 29°C
Dew Point: 68°F , 20°C
Humidity: 62%
Barometer: 30.09 inHg , 1019 hPa
Clouds: Mostly Cloudy
Visibility: 10 miles , 16 km
Cloud details: Mostly Cloudy 4200 ft
2022/07/04 23:57 PHNG 042357Z AUTO 07012G23KT 10SM BKN042 28/20 A3009 RMK AO2 SLP183 T02830200 58011 $
PHNL - Honolulu, Hawaii, USA
Distance from station: WNW 108mi, 174km
Updated: Mon, 04-Jul-2022 1:53pm HST
Mostly Cloudy
Mostly Cloudy
 Wind from NE
Wind: NE 15 mph , 24 km/h, Gust: 28 mph , 44 km/h
Temperature: 81°F , 27°C
Heat Index: 83°F , 28°C
Dew Point: 66°F , 19°C
Humidity: 62%
Barometer: 30.10 inHg , 1019.3 hPa
Clouds: Mostly Cloudy
Visibility: 10 miles , 16 km
Cloud details: Few Clouds 2200 ft
Partly Cloudy 3200 ft
Mostly Cloudy 4100 ft
2022/07/04 23:53 PHNL 042353Z 05013G24KT 10SM FEW022 SCT032 BKN041 27/19 A3010 RMK AO2 PK WND 06032/2319 RAB22E31 SLP191 VCSH N P0000 60000 T02670194 10289 20244 56008 $
 
PHTO - Hilo, Hawaii, USA
Distance from station: SE 114mi, 183km
Updated: Mon, 04-Jul-2022 1:53pm HST
Overcast
Overcast
 Wind from NE
Wind: NE 9 mph , 15 km/h
Temperature: 82°F , 28°C
Heat Index: 84°F , 29°C
Dew Point: 66°F , 19°C
Humidity: 58%
Barometer: 30.09 inHg , 1019 hPa
Clouds: Overcast
Visibility: 10 miles , 16 km
Cloud details: Overcast 5500 ft
2022/07/04 23:53 PHTO 042353Z AUTO 05008KT 10SM OVC055 28/19 A3009 RMK AO2 SLP188 T02780189 10283 20233 58012 TSNO
PHJR - Kalaeloa, Hawaii, USA
Distance from station: WNW 117mi, 189km
Updated: Mon, 04-Jul-2022 1:53pm HST
Overcast
Overcast
 Wind from ENE
Wind: ENE 16 mph , 26 km/h, Gust: 28 mph , 44 km/h
Temperature: 82°F , 28°C
Heat Index: 84°F , 29°C
Dew Point: 66°F , 19°C
Humidity: 58%
Barometer: 30.10 inHg , 1019.3 hPa
Clouds: Overcast
Visibility: 10 miles , 16 km
Cloud details: Few Clouds 2700 ft
Mostly Cloudy 3300 ft
Overcast 4300 ft
2022/07/04 23:53 PHJR 042353Z 07014G24KT 10SM FEW027 BKN033 OVC043 28/19 A3010 RMK AO2 SLP197 60001 T02830194 10306 20250 56010
 
PHHI - Wheeler Afb/Oahu, Hawaii, USA
Distance from station: WNW 120mi, 193km
Updated: Mon, 04-Jul-2022 2:26pm HST
Light drizzle, Overcast
Light drizzle, Overcast
 Wind from E
Wind: E 9 mph , 15 km/h
Temperature: 72°F , 22°C
Dew Point: 66°F , 19°C
Humidity: 83%
Barometer: 30.13 inHg , 1020.3 hPa
Summary: Light Drizzle
Clouds: Overcast
Visibility: 6 miles , 10 km
Cloud details: Mostly Cloudy 600 ft
Overcast 2000 ft
2022/07/05 00:26 PHHI 050026Z AUTO 08008KT 6SM -DZ BKN006 OVC020 22/19 A3013 RMK AO2 DZE14RAB14E24DZB24 CIG 006V020 SLP194 $
PHLI - Lihue/Kauai Is, Hawaii, USA
Distance from station: WNW 209mi, 336km
Updated: Mon, 04-Jul-2022 1:53pm HST
Light rain, Overcast
Light rain, Overcast
 Wind from NE
Wind: NE 20 mph , 31 km/h, Gust: 28 mph , 44 km/h
Temperature: 79°F , 26°C
Dew Point: 70°F , 21°C
Humidity: 74%
Barometer: 30.14 inHg , 1020.7 hPa
Summary: Light Rain
Clouds: Overcast
Visibility: 8 miles , 13 km
Cloud details: Partly Cloudy 2100 ft
Mostly Cloudy 2700 ft
Overcast 4600 ft
2022/07/04 23:53 PHLI 042353Z 05017G24KT 8SM -RA SCT021 BKN027 OVC046 26/21 A3014 RMK AO2 RAE2259B52 SLP202 P0000 60001 T02610211 10283 20239 58010
 
PHBK - Barking Sands/Ka, Hawaii, USA
Distance from station: WNW 237mi, 382km
Updated: Mon, 04-Jul-2022 2:41pm HST
Mostly Cloudy
Mostly Cloudy
 Wind from NW
Wind: NW 8 mph , 13 km/h
Temperature: 86°F , 30°C
Heat Index: 88°F , 31°C
Dew Point: 66°F , 19°C
Humidity: 52%
Barometer: 30.06 inHg , 1017.9 hPa
Clouds: Mostly Cloudy
Visibility: 10 miles , 16 km
Cloud details: Mostly Cloudy 4700 ft
Mostly Cloudy 6000 ft
2022/07/05 00:41 PHBK 050041Z AUTO 32007KT 10SM BKN047 BKN060 30/19 A3006 RMK AO2 T03000194